createdAt,value
2022-12-12T00:02:25.577Z,13.23
2022-12-12T00:04:53.105Z,12.67
2022-12-12T00:07:20.577Z,13.10
2022-12-12T00:09:49.617Z,13.60
2022-12-12T00:12:17.060Z,12.50
2022-12-12T00:14:44.502Z,13.00
2022-12-12T00:17:11.892Z,13.30
2022-12-12T00:19:39.364Z,13.40
2022-12-12T00:22:06.829Z,12.63
2022-12-12T00:24:34.265Z,13.27
2022-12-12T00:27:03.046Z,12.60
2022-12-12T00:29:30.631Z,12.80
2022-12-12T00:31:58.028Z,12.53
2022-12-12T00:34:25.470Z,13.00
2022-12-12T00:36:52.971Z,13.17
2022-12-12T00:39:20.501Z,13.30
2022-12-12T00:41:48.460Z,12.70
2022-12-12T00:44:17.472Z,12.63
2022-12-12T00:46:44.931Z,13.47
2022-12-12T00:49:13.245Z,13.07
2022-12-12T00:51:40.662Z,13.13
2022-12-12T00:54:08.239Z,13.57
2022-12-12T00:56:35.650Z,13.90
2022-12-12T00:59:03.109Z,13.70
2022-12-12T01:01:33.079Z,13.20
2022-12-12T01:04:00.809Z,13.60
2022-12-12T01:06:28.679Z,12.60
2022-12-12T01:08:56.326Z,13.83
2022-12-12T01:11:24.623Z,13.57
2022-12-12T01:13:52.987Z,13.10
2022-12-12T01:16:20.918Z,13.20
2022-12-12T01:18:49.972Z,12.77
2022-12-12T01:21:19.163Z,13.30
2022-12-12T01:23:46.550Z,13.03
2022-12-12T01:26:14.897Z,13.30
2022-12-12T01:28:43.137Z,13.87
2022-12-12T01:31:10.999Z,13.13
2022-12-12T01:33:38.849Z,13.00
2022-12-12T01:36:07.830Z,13.00
2022-12-12T01:38:35.296Z,12.30
2022-12-12T01:41:02.716Z,13.60
2022-12-12T01:43:30.714Z,13.43
2022-12-12T01:46:18.950Z,13.80
2022-12-12T01:48:48.689Z,13.90
2022-12-12T01:51:18.333Z,12.23
2022-12-12T01:53:46.173Z,14.30
2022-12-12T01:56:15.622Z,13.47
2022-12-12T01:58:44.375Z,13.47
2022-12-12T02:01:11.998Z,13.50
2022-12-12T02:03:40.328Z,13.27
2022-12-12T02:06:10.220Z,14.13
2022-12-12T02:08:39.189Z,12.83
2022-12-12T02:11:06.965Z,13.03
2022-12-12T02:13:35.265Z,12.97
2022-12-12T02:16:10.852Z,12.73
2022-12-12T02:18:41.258Z,12.70
2022-12-12T02:21:15.464Z,12.07
2022-12-12T02:23:56.408Z,12.77
2022-12-12T02:26:44.590Z,12.93
2022-12-12T02:29:36.024Z,13.03
2022-12-12T02:32:08.098Z,12.83
2022-12-12T02:34:38.095Z,12.63
2022-12-12T02:37:09.305Z,13.80
2022-12-12T02:39:40.291Z,12.47
2022-12-12T02:42:10.947Z,12.20
2022-12-12T02:44:41.026Z,12.10
2022-12-12T02:47:15.442Z,10.90
2022-12-12T02:49:45.098Z,9.80
2022-12-12T02:52:12.940Z,9.67
2022-12-12T02:54:40.572Z,9.10
2022-12-12T02:57:14.315Z,9.17
2022-12-12T02:59:43.141Z,9.50
2022-12-12T03:02:21.313Z,9.07
2022-12-12T03:05:14.658Z,10.10
2022-12-12T03:07:49.080Z,9.43
2022-12-12T03:10:20.620Z,10.00
2022-12-12T03:12:51.123Z,9.90
2022-12-12T03:15:21.218Z,9.23
2022-12-12T03:17:52.761Z,9.07
2022-12-12T03:20:23.059Z,9.53
2022-12-12T03:22:52.892Z,8.87
2022-12-12T03:25:23.828Z,8.73
2022-12-12T03:27:52.471Z,9.40
2022-12-12T03:30:20.587Z,8.50
2022-12-12T03:32:51.894Z,8.70
2022-12-12T03:35:22.017Z,8.33
2022-12-12T03:37:52.303Z,8.27
2022-12-12T03:40:22.274Z,8.63
2022-12-12T03:42:51.703Z,8.43
2022-12-12T03:45:21.365Z,8.60
2022-12-12T03:47:50.686Z,7.90
2022-12-12T03:50:20.239Z,8.03
2022-12-12T03:52:51.539Z,8.70
2022-12-12T03:55:23.911Z,8.70
2022-12-12T03:57:54.261Z,7.50
2022-12-12T04:00:21.832Z,8.10
2022-12-12T04:02:51.868Z,7.90
2022-12-12T04:05:21.416Z,7.70
2022-12-12T04:07:52.858Z,7.40
2022-12-12T04:10:38.590Z,7.87
2022-12-12T04:13:11.201Z,6.60
2022-12-12T04:15:46.756Z,8.33
2022-12-12T04:18:17.349Z,8.20
2022-12-12T04:21:03.412Z,7.83
2022-12-12T04:23:36.644Z,8.60
2022-12-12T04:26:24.867Z,6.90
2022-12-12T04:28:55.662Z,7.73
2022-12-12T04:31:24.554Z,8.20
2022-12-12T04:33:53.668Z,7.97
2022-12-12T04:36:22.982Z,6.90
2022-12-12T04:38:52.671Z,8.10
2022-12-12T04:41:21.512Z,7.23
2022-12-12T04:43:50.625Z,7.70
2022-12-12T04:46:19.512Z,7.20
2022-12-12T04:48:51.819Z,7.00
2022-12-12T04:51:24.168Z,6.90
2022-12-12T04:53:55.031Z,7.60
2022-12-12T04:56:25.010Z,7.50
2022-12-12T04:58:52.540Z,7.73
2022-12-12T05:01:23.597Z,6.93
2022-12-12T05:03:53.942Z,7.23
2022-12-12T05:06:23.281Z,7.70
2022-12-12T05:08:52.153Z,7.00
2022-12-12T05:11:22.080Z,7.70
2022-12-12T05:13:50.393Z,7.40
2022-12-12T05:16:19.319Z,7.47
2022-12-12T05:18:47.311Z,7.17
2022-12-12T05:21:14.975Z,6.80
2022-12-12T05:23:42.421Z,7.97
2022-12-12T05:26:10.957Z,7.20
2022-12-12T05:28:39.825Z,7.33
2022-12-12T05:31:07.352Z,7.80
2022-12-12T05:33:34.761Z,7.77
2022-12-12T05:36:02.209Z,7.90
2022-12-12T05:38:29.660Z,8.00
2022-12-12T05:40:57.074Z,8.60
2022-12-12T05:43:24.474Z,7.10
2022-12-12T05:45:53.593Z,7.77
2022-12-12T05:48:24.320Z,8.13
2022-12-12T05:50:52.339Z,8.07
2022-12-12T05:53:20.153Z,7.83
2022-12-12T05:55:47.887Z,8.20
2022-12-12T05:58:15.804Z,8.53
2022-12-12T06:00:43.322Z,8.30
2022-12-12T06:03:12.272Z,9.07
2022-12-12T06:05:39.889Z,8.63
2022-12-12T06:08:07.325Z,8.53
2022-12-12T06:10:34.816Z,8.60
2022-12-12T06:13:02.236Z,8.50
2022-12-12T06:15:29.859Z,8.93
2022-12-12T06:17:58.449Z,9.10
2022-12-12T06:20:27.243Z,7.93
2022-12-12T06:22:54.709Z,8.60
2022-12-12T06:25:22.152Z,8.97
2022-12-12T06:27:49.550Z,7.60
2022-12-12T06:30:17.076Z,8.70
2022-12-12T06:32:45.825Z,8.50
2022-12-12T06:35:13.723Z,8.50
2022-12-12T06:37:42.658Z,9.30
2022-12-12T06:40:10.739Z,8.63
2022-12-12T06:42:39.929Z,8.60
2022-12-12T06:45:11.464Z,8.73
2022-12-12T06:47:40.188Z,7.60
2022-12-12T06:50:07.828Z,7.80
2022-12-12T06:52:35.280Z,8.20
2022-12-12T06:55:04.674Z,8.37
2022-12-12T06:57:32.063Z,10.20
2022-12-12T06:59:59.515Z,15.60
2022-12-12T07:02:30.043Z,12.50
2022-12-12T07:04:58.066Z,11.07
2022-12-12T07:07:25.538Z,9.53
2022-12-12T07:09:52.948Z,11.80
2022-12-12T07:12:21.737Z,10.87
2022-12-12T07:14:49.126Z,9.70
2022-12-12T07:17:16.520Z,10.70
2022-12-12T07:19:44.016Z,8.13
2022-12-12T07:22:11.420Z,8.20
2022-12-12T07:24:39.012Z,7.50
2022-12-12T07:27:07.273Z,7.63
2022-12-12T07:29:36.096Z,7.87
2022-12-12T07:32:03.552Z,7.40
2022-12-12T07:34:31.279Z,7.67
2022-12-12T07:37:02.922Z,8.03
2022-12-12T07:39:31.098Z,7.47
2022-12-12T07:41:58.719Z,7.47
2022-12-12T07:44:26.210Z,7.10
2022-12-12T07:46:55.062Z,7.43
2022-12-12T07:49:22.506Z,7.40
2022-12-12T07:51:49.916Z,7.33
2022-12-12T07:54:17.314Z,7.17
2022-12-12T07:56:44.784Z,7.37
2022-12-12T07:59:12.524Z,8.07
2022-12-12T08:01:40.173Z,7.30
2022-12-12T08:04:08.997Z,8.03
2022-12-12T08:06:36.458Z,7.67
2022-12-12T08:09:04.324Z,7.70
2022-12-12T08:11:31.686Z,8.00
2022-12-12T08:13:59.313Z,7.27
2022-12-12T08:16:27.663Z,6.90
2022-12-12T08:18:55.621Z,7.97
2022-12-12T08:21:26.124Z,8.37
2022-12-12T08:23:56.214Z,9.00
2022-12-12T08:26:23.579Z,8.53
2022-12-12T08:28:50.978Z,9.30
2022-12-12T08:31:18.868Z,7.90
2022-12-12T08:33:46.501Z,7.93
2022-12-12T08:36:14.981Z,6.90
2022-12-12T08:38:43.739Z,7.90
2022-12-12T08:41:11.562Z,6.83
2022-12-12T08:43:39.459Z,7.43
2022-12-12T08:46:12.298Z,7.07
2022-12-12T08:48:42.982Z,6.87
2022-12-12T08:51:10.511Z,8.10
2022-12-12T08:53:37.922Z,6.77
2022-12-12T08:56:07.406Z,7.50
2022-12-12T08:58:34.855Z,6.90
2022-12-12T09:01:02.532Z,7.63
2022-12-12T09:03:30.021Z,7.97
2022-12-12T09:05:57.609Z,7.50
2022-12-12T09:08:25.078Z,6.77
2022-12-12T09:10:52.597Z,7.47
2022-12-12T09:13:21.376Z,8.43
2022-12-12T09:15:51.187Z,8.30
2022-12-12T09:18:18.742Z,8.10
2022-12-12T09:20:48.922Z,7.63
2022-12-12T09:23:16.465Z,7.90
2022-12-12T09:25:44.085Z,8.70
2022-12-12T09:28:11.637Z,8.00
2022-12-12T09:30:40.859Z,8.20
2022-12-12T09:33:08.756Z,7.30
2022-12-12T09:35:36.756Z,7.70
2022-12-12T09:38:07.074Z,8.30
2022-12-12T09:40:38.954Z,7.30
2022-12-12T09:43:07.010Z,7.13
2022-12-12T09:45:35.758Z,7.50
2022-12-12T09:48:05.267Z,8.30
2022-12-12T09:50:33.477Z,8.30
2022-12-12T09:53:02.681Z,7.30
2022-12-12T09:55:36.601Z,7.30
2022-12-12T09:58:06.379Z,7.27
2022-12-12T10:00:37.252Z,6.83
2022-12-12T10:03:16.609Z,7.10
2022-12-12T10:06:13.450Z,7.60
2022-12-12T10:08:45.537Z,7.57
2022-12-12T10:11:28.394Z,7.50
2022-12-12T10:13:57.041Z,7.70
2022-12-12T10:16:24.806Z,7.80
2022-12-12T10:18:54.910Z,7.40
2022-12-12T10:21:23.935Z,8.13
2022-12-12T10:23:55.411Z,8.10
2022-12-12T10:26:25.278Z,7.40
2022-12-12T10:28:54.377Z,8.17
2022-12-12T10:31:28.653Z,7.57
2022-12-12T10:34:02.916Z,8.20
2022-12-12T10:36:35.900Z,7.97
2022-12-12T10:39:08.706Z,8.00
2022-12-12T10:41:41.326Z,7.87
2022-12-12T10:44:13.588Z,7.20
2022-12-12T10:46:43.406Z,7.90
2022-12-12T10:49:15.991Z,8.10
2022-12-12T10:51:44.639Z,7.70
2022-12-12T10:54:15.955Z,7.90
2022-12-12T10:57:05.022Z,7.23
2022-12-12T10:59:32.510Z,7.10
2022-12-12T11:02:16.167Z,7.67
2022-12-12T11:04:45.514Z,6.53
2022-12-12T11:07:19.393Z,8.33
2022-12-12T11:09:46.910Z,7.20
2022-12-12T11:12:15.404Z,6.97
2022-12-12T11:14:47.386Z,7.00
2022-12-12T11:17:21.991Z,7.00
2022-12-12T11:19:50.797Z,7.23
2022-12-12T11:22:18.301Z,7.70
2022-12-12T11:24:46.745Z,7.13
2022-12-12T11:27:20.389Z,7.87
2022-12-12T11:29:49.378Z,7.97
2022-12-12T11:32:18.638Z,7.70
2022-12-12T11:34:48.397Z,7.50
2022-12-12T11:37:18.466Z,9.53
2022-12-12T11:39:46.875Z,7.80
2022-12-12T11:42:21.949Z,7.50
2022-12-12T11:44:58.146Z,7.77
2022-12-12T11:47:27.347Z,8.37
2022-12-12T11:49:56.041Z,8.37
2022-12-12T11:52:26.285Z,8.00
2022-12-12T11:54:54.395Z,7.40
2022-12-12T11:57:31.953Z,8.13
2022-12-12T12:00:06.276Z,8.50
2022-12-12T12:02:51.757Z,8.00
2022-12-12T12:05:24.019Z,8.00
2022-12-12T12:07:58.673Z,8.47
2022-12-12T12:10:34.565Z,8.83
2022-12-12T12:13:07.833Z,8.20
2022-12-12T12:15:37.545Z,8.80
2022-12-12T12:18:22.484Z,9.17
2022-12-12T12:21:06.394Z,8.97
2022-12-12T12:23:41.963Z,8.40
2022-12-12T12:26:13.731Z,9.30
2022-12-12T12:29:03.211Z,8.67
2022-12-12T12:31:36.219Z,8.20
2022-12-12T12:34:10.401Z,8.60
2022-12-12T12:36:43.219Z,8.37
2022-12-12T12:39:17.860Z,7.87
2022-12-12T12:41:50.426Z,8.10
2022-12-12T12:44:23.145Z,8.70
2022-12-12T12:46:53.391Z,8.60
2022-12-12T12:49:23.004Z,8.00
2022-12-12T12:51:54.073Z,8.63
2022-12-12T12:54:24.209Z,8.40
2022-12-12T12:56:54.795Z,11.67
2022-12-12T12:59:23.614Z,10.00
2022-12-12T13:01:52.736Z,9.30
2022-12-12T13:04:22.805Z,9.77
2022-12-12T13:06:52.468Z,8.80
2022-12-12T13:09:28.150Z,8.70
2022-12-12T13:12:00.266Z,8.60
2022-12-12T13:14:35.395Z,7.43
2022-12-12T13:17:06.743Z,8.67
2022-12-12T13:19:38.048Z,9.57
2022-12-12T13:22:08.225Z,8.00
2022-12-12T13:24:40.197Z,8.23
2022-12-12T13:27:15.686Z,8.50
2022-12-12T13:29:47.030Z,8.40
2022-12-12T13:32:35.582Z,8.57
2022-12-12T13:35:05.939Z,8.33
2022-12-12T13:37:34.582Z,7.97
2022-12-12T13:40:05.694Z,8.70
2022-12-12T13:42:48.017Z,8.53
2022-12-12T13:45:37.059Z,8.53
2022-12-12T13:48:05.329Z,8.77
2022-12-12T13:50:32.777Z,8.30
2022-12-12T13:53:17.854Z,8.33
2022-12-12T13:55:46.611Z,8.50
2022-12-12T13:58:22.022Z,8.60
2022-12-12T14:00:49.593Z,8.37
2022-12-12T14:03:23.084Z,9.17
2022-12-12T14:05:51.515Z,8.97
2022-12-12T14:08:24.363Z,8.93
2022-12-12T14:10:55.654Z,8.60
2022-12-12T14:13:32.064Z,8.97
2022-12-12T14:16:07.347Z,8.80
2022-12-12T14:18:38.147Z,8.30
2022-12-12T14:21:07.744Z,9.27
2022-12-12T14:23:35.698Z,8.60
2022-12-12T14:26:24.466Z,7.50
2022-12-12T14:29:06.858Z,8.10
2022-12-12T14:31:39.869Z,7.93
2022-12-12T14:34:20.802Z,8.27
2022-12-12T14:37:06.212Z,7.90
2022-12-12T14:39:49.544Z,7.70
2022-12-12T14:42:21.857Z,8.80
2022-12-12T14:44:50.977Z,8.27
2022-12-12T14:47:18.905Z,8.70
2022-12-12T14:49:46.408Z,9.00
2022-12-12T14:52:17.502Z,8.80
2022-12-12T14:54:44.967Z,8.37
2022-12-12T14:57:19.309Z,8.90
2022-12-12T14:59:48.662Z,8.67
2022-12-12T15:02:18.860Z,8.43
2022-12-12T15:04:47.207Z,8.83
2022-12-12T15:07:23.188Z,8.47
2022-12-12T15:09:50.811Z,8.70
2022-12-12T15:12:19.152Z,8.30
2022-12-12T15:14:55.259Z,8.67
2022-12-12T15:17:27.337Z,7.57
2022-12-12T15:19:55.844Z,7.20
2022-12-12T15:22:24.768Z,7.27
2022-12-12T15:24:52.912Z,6.90
2022-12-12T15:27:21.333Z,6.87
2022-12-12T15:29:49.049Z,7.20
2022-12-12T15:32:18.791Z,7.40
2022-12-12T15:34:47.382Z,6.97
2022-12-12T15:37:32.841Z,6.97
2022-12-12T15:40:13.418Z,7.53
2022-12-12T15:42:42.615Z,7.80
2022-12-12T15:45:16.046Z,10.07
2022-12-12T15:47:44.872Z,10.20
2022-12-12T15:50:16.235Z,10.57
2022-12-12T15:52:43.964Z,8.87
2022-12-12T15:55:18.179Z,8.20
2022-12-12T15:57:46.705Z,8.23
2022-12-12T16:00:29.145Z,7.83
2022-12-12T16:03:02.657Z,8.20
2022-12-12T16:05:31.599Z,7.87
2022-12-12T16:08:17.632Z,7.47
2022-12-12T16:10:52.431Z,8.60
2022-12-12T16:13:24.116Z,8.10
2022-12-12T16:15:51.682Z,9.73
2022-12-12T16:18:21.837Z,9.23
2022-12-12T16:20:50.145Z,8.13
2022-12-12T16:23:28.722Z,8.07
2022-12-12T16:25:56.541Z,7.87
2022-12-12T16:28:25.784Z,7.80
2022-12-12T16:30:57.482Z,8.27
2022-12-12T16:33:28.214Z,9.17
2022-12-12T16:35:56.193Z,9.40
2022-12-12T16:38:23.849Z,11.87
2022-12-12T16:40:52.134Z,11.20
2022-12-12T16:43:20.878Z,10.00
2022-12-12T16:45:49.828Z,10.53
2022-12-12T16:48:18.221Z,10.07
2022-12-12T16:50:47.358Z,10.10
2022-12-12T16:53:14.928Z,9.37
2022-12-12T16:55:43.754Z,9.17
2022-12-12T16:58:11.342Z,9.03
2022-12-12T17:00:40.158Z,9.17
2022-12-12T17:03:07.640Z,9.50
2022-12-12T17:05:35.310Z,8.00
2022-12-12T17:08:04.150Z,9.30
2022-12-12T17:10:33.386Z,8.90
2022-12-12T17:13:00.836Z,8.90
2022-12-12T17:15:29.709Z,9.53
2022-12-12T17:17:57.419Z,10.50
2022-12-12T17:20:25.670Z,10.50
2022-12-12T17:22:53.234Z,11.10
2022-12-12T17:25:22.733Z,11.70
2022-12-12T17:27:50.553Z,10.80
2022-12-12T17:30:18.361Z,9.30
2022-12-12T17:35:31.095Z,9.60
2022-12-12T17:37:58.770Z,9.10
2022-12-12T17:40:27.666Z,9.20
2022-12-12T17:42:55.157Z,10.17
2022-12-12T17:45:22.758Z,9.20
2022-12-12T17:47:50.213Z,9.83
2022-12-12T17:50:17.706Z,10.10
2022-12-12T17:52:45.099Z,10.23
2022-12-12T17:55:54.971Z,11.00
2022-12-12T17:58:01.324Z,10.87
2022-12-12T18:00:28.754Z,10.87
2022-12-12T18:02:56.189Z,11.13
2022-12-12T18:05:23.568Z,10.43
2022-12-12T18:07:50.987Z,11.13
2022-12-12T18:10:18.477Z,11.27
2022-12-12T18:12:51.440Z,10.90
2022-12-12T18:15:20.704Z,10.47
2022-12-12T18:17:48.093Z,11.70
2022-12-12T18:20:15.790Z,11.03
2022-12-12T18:22:43.454Z,11.80
2022-12-12T18:25:10.977Z,10.90
2022-12-12T18:27:40.398Z,10.63
2022-12-12T18:30:08.346Z,10.77
2022-12-12T18:32:37.169Z,9.70
2022-12-12T18:35:04.950Z,11.57
2022-12-12T18:37:32.368Z,11.17
2022-12-12T18:39:59.774Z,10.70
2022-12-12T18:42:27.194Z,9.87
2022-12-12T18:44:54.594Z,8.90
2022-12-12T18:47:21.994Z,9.63
2022-12-12T18:49:50.777Z,9.30
2022-12-12T18:52:18.142Z,9.40
2022-12-12T18:54:45.609Z,10.90
2022-12-12T18:57:13.106Z,9.60
2022-12-12T18:59:40.560Z,10.27
2022-12-12T19:02:08.657Z,9.93
2022-12-12T19:04:36.176Z,9.60
2022-12-12T19:07:04.944Z,10.07
2022-12-12T19:09:32.383Z,9.60
2022-12-12T19:12:02.479Z,10.80
2022-12-12T19:14:45.743Z,12.90
2022-12-12T19:17:24.998Z,10.40
2022-12-12T19:19:53.857Z,10.80
2022-12-12T19:22:44.316Z,11.77
2022-12-12T19:25:10.683Z,10.63
2022-12-12T19:27:38.212Z,10.70
2022-12-12T19:30:06.234Z,10.67
2022-12-12T19:32:33.627Z,10.87
2022-12-12T19:35:01.076Z,11.40
2022-12-12T19:37:29.926Z,10.23
2022-12-12T19:39:57.327Z,10.30
2022-12-12T19:42:24.802Z,10.10
2022-12-12T19:44:52.298Z,11.00
2022-12-12T19:47:19.793Z,10.70
2022-12-12T19:49:47.178Z,11.50
2022-12-12T19:52:14.760Z,14.30
2022-12-12T19:54:43.626Z,12.60
2022-12-12T19:57:11.074Z,11.63
2022-12-12T19:59:38.710Z,11.03
2022-12-12T20:02:07.114Z,12.30
2022-12-12T20:04:34.760Z,10.97
2022-12-12T20:07:02.188Z,11.33
2022-12-12T20:09:30.390Z,11.10
2022-12-12T20:12:00.919Z,11.80
2022-12-12T20:14:29.339Z,11.17
2022-12-12T20:16:57.444Z,11.17
2022-12-12T20:19:26.896Z,11.17
2022-12-12T20:22:03.070Z,12.47
2022-12-12T20:24:31.853Z,12.40
2022-12-12T20:27:03.402Z,11.07
2022-12-12T20:29:31.039Z,10.70
2022-12-12T20:31:59.869Z,11.07
2022-12-12T20:34:27.683Z,11.67
2022-12-12T20:36:56.054Z,12.03
2022-12-12T20:39:24.835Z,11.63
2022-12-12T20:41:53.575Z,11.10
2022-12-12T20:44:23.999Z,11.13
2022-12-12T20:46:51.473Z,11.40
2022-12-12T20:49:21.982Z,11.80
2022-12-12T20:51:57.963Z,11.33
2022-12-12T20:54:26.744Z,12.00
2022-12-12T20:56:54.927Z,11.50
2022-12-12T20:59:23.984Z,12.20
2022-12-12T21:01:51.667Z,10.83
2022-12-12T21:04:19.590Z,10.90
2022-12-12T21:06:49.594Z,12.03
2022-12-12T21:09:23.366Z,11.63
2022-12-12T21:11:52.307Z,12.00
2022-12-12T21:14:19.859Z,11.83
2022-12-12T21:16:48.883Z,11.63
2022-12-12T21:19:18.930Z,12.13
2022-12-12T21:21:46.580Z,12.17
2022-12-12T21:24:14.641Z,11.50
2022-12-12T21:26:42.263Z,11.60
2022-12-12T21:29:10.490Z,11.97
2022-12-12T21:31:40.452Z,11.60
2022-12-12T21:34:11.208Z,12.10
2022-12-12T21:36:38.785Z,13.70
2022-12-12T21:39:07.306Z,12.10
2022-12-12T21:41:35.406Z,10.63
2022-12-12T21:44:02.879Z,11.40
2022-12-12T21:46:30.490Z,12.30
2022-12-12T21:49:16.338Z,12.20
2022-12-12T21:51:45.481Z,11.90
2022-12-12T21:54:14.519Z,11.40
2022-12-12T21:56:42.008Z,12.03
2022-12-12T21:59:10.658Z,11.33
2022-12-12T22:01:38.520Z,12.53
2022-12-12T22:04:06.111Z,12.20
2022-12-12T22:06:34.528Z,12.33
2022-12-12T22:09:05.481Z,12.10
2022-12-12T22:11:47.407Z,11.33
2022-12-12T22:14:18.519Z,11.20
2022-12-12T22:16:46.024Z,12.13
2022-12-12T22:19:14.413Z,12.63
2022-12-12T22:21:42.310Z,12.00
2022-12-12T22:24:11.261Z,11.93
2022-12-12T22:26:39.477Z,12.57
2022-12-12T22:29:07.868Z,12.80
2022-12-12T22:31:37.307Z,11.67
2022-12-12T22:34:06.602Z,12.10
2022-12-12T22:36:34.811Z,12.53
2022-12-12T22:39:02.783Z,12.27
2022-12-12T22:41:31.590Z,12.10
2022-12-12T22:44:00.331Z,11.77
2022-12-12T22:46:28.029Z,11.77
2022-12-12T22:48:56.522Z,12.67
2022-12-12T22:51:24.794Z,12.03
2022-12-12T22:53:52.310Z,11.83
2022-12-12T22:56:19.734Z,12.80
2022-12-12T22:58:48.543Z,12.07
2022-12-12T23:01:16.952Z,11.50
2022-12-12T23:03:44.986Z,12.43
2022-12-12T23:06:13.409Z,12.93
2022-12-12T23:08:40.971Z,12.80
2022-12-12T23:11:10.124Z,12.50
2022-12-12T23:13:37.650Z,13.07
2022-12-12T23:16:07.214Z,13.00
2022-12-12T23:18:36.432Z,12.67
2022-12-12T23:21:04.323Z,13.17
2022-12-12T23:23:34.015Z,13.10
2022-12-12T23:26:02.023Z,13.67
2022-12-12T23:28:29.522Z,14.00
2022-12-12T23:30:56.951Z,13.37
2022-12-12T23:33:26.443Z,12.63
2022-12-12T23:35:54.557Z,12.53
2022-12-12T23:38:22.061Z,12.50
2022-12-12T23:40:49.617Z,12.80
2022-12-12T23:43:17.022Z,12.80
2022-12-12T23:45:44.610Z,13.30
2022-12-12T23:48:12.105Z,13.67
2022-12-12T23:50:40.890Z,13.03
2022-12-12T23:53:10.672Z,12.90
2022-12-12T23:55:38.387Z,13.10
2022-12-12T23:58:05.939Z,12.50
